Time;durP1;ratioP1;P1;durP2;ratioP2;P2;SDS_P1;SDS_P2;PMS_P1;PMS_P2;Temp;Humidity;BMP_temperature;BMP_pressure;BME280_temperature;BME280_humidity;BME280_pressure;Samples;Min_cycle;Max_cycle;Signal;HPM_P1;HPM_P2
2021/12/29 00:00:21;;;;;;;11.77;3.47;;;13.00;99.90;;;;;;4994861;28;20049;-74
2021/12/29 00:02:48;;;;;;;16.20;3.95;;;13.10;99.90;;;;;;4995376;28;20022;-75
2021/12/29 00:05:14;;;;;;;12.95;3.60;;;13.10;99.90;;;;;;4994819;28;20406;-75
2021/12/29 00:07:39;;;;;;;16.67;3.75;;;13.20;99.90;;;;;;4994602;28;20037;-74
2021/12/29 00:10:06;;;;;;;12.27;3.35;;;13.20;99.90;;;;;;4994713;28;20018;-76
2021/12/29 00:12:39;;;;;;;14.48;3.30;;;13.20;99.90;;;;;;4994500;28;20475;-73
2021/12/29 00:15:05;;;;;;;15.10;3.70;;;13.30;99.90;;;;;;4994644;28;20468;-75
2021/12/29 00:17:31;;;;;;;13.38;3.70;;;13.30;99.90;;;;;;4994591;28;20371;-75
2021/12/29 00:19:56;;;;;;;12.07;3.15;;;13.30;99.90;;;;;;4994514;28;20034;-74
2021/12/29 00:22:22;;;;;;;13.10;3.00;;;13.30;99.90;;;;;;4994763;28;20061;-78
2021/12/29 00:24:48;;;;;;;11.90;3.55;;;13.30;99.90;;;;;;4994442;28;20027;-77
2021/12/29 00:27:13;;;;;;;5.95;2.30;;;13.30;99.90;;;;;;4994324;28;20535;-74
2021/12/29 00:29:40;;;;;;;12.02;2.90;;;13.40;99.90;;;;;;4994328;28;20100;-73
2021/12/29 00:32:06;;;;;;;15.93;2.78;;;13.40;99.90;;;;;;4994308;28;20022;-74
2021/12/29 00:34:31;;;;;;;14.63;3.00;;;13.40;99.90;;;;;;4994278;28;20022;-75
2021/12/29 00:36:57;;;;;;;15.52;3.13;;;13.40;99.90;;;;;;4994749;28;20077;-75
2021/12/29 00:39:23;;;;;;;12.15;2.88;;;13.40;99.90;;;;;;4994484;28;20036;-74
2021/12/29 00:41:48;;;;;;;8.10;2.42;;;13.40;99.90;;;;;;4994126;28;20026;-75
2021/12/29 00:44:14;;;;;;;7.43;2.72;;;13.40;99.90;;;;;;4993972;28;20079;-77
2021/12/29 00:46:40;;;;;;;8.52;2.78;;;13.40;99.90;;;;;;4992784;28;20450;-75
2021/12/29 00:49:08;;;;;;;12.40;2.92;;;13.50;99.90;;;;;;4994108;28;20026;-76
2021/12/29 00:51:34;;;;;;;11.50;2.25;;;13.50;99.90;;;;;;4994049;28;20034;-75
2021/12/29 00:54:00;;;;;;;5.47;1.75;;;13.50;99.90;;;;;;4993996;28;20030;-75
2021/12/29 00:56:25;;;;;;;7.60;1.73;;;13.50;99.90;;;;;;4994509;28;20508;-77
2021/12/29 00:58:51;;;;;;;8.60;2.83;;;13.50;99.90;;;;;;4994231;28;20121;-75
2021/12/29 01:01:17;;;;;;;6.40;1.83;;;13.50;99.90;;;;;;4993929;28;20112;-75
2021/12/29 01:03:43;;;;;;;4.20;1.30;;;13.50;99.90;;;;;;4992645;28;20173;-74
2021/12/29 01:06:10;;;;;;;4.65;1.40;;;13.50;99.90;;;;;;4993803;28;20147;-76
2021/12/29 01:08:36;;;;;;;4.25;1.38;;;13.50;99.90;;;;;;4994149;28;20081;-76
2021/12/29 01:11:03;;;;;;;2.65;0.80;;;13.50;99.90;;;;;;4993916;28;20022;-77
2021/12/29 01:13:34;;;;;;;2.90;1.00;;;13.50;99.90;;;;;;4993811;28;20483;-76
2021/12/29 01:18:35;;;;;;;1.30;0.80;;;13.50;99.90;;;;;;4993880;28;20084;-75
2021/12/29 01:21:02;;;;;;;3.50;0.95;;;13.50;99.90;;;;;;4993745;28;20089;-76
2021/12/29 01:23:27;;;;;;;1.55;0.63;;;13.50;99.90;;;;;;4993779;28;20105;-75
2021/12/29 01:25:53;;;;;;;1.85;0.70;;;13.60;99.90;;;;;;4996365;28;20457;-76
2021/12/29 01:28:19;;;;;;;1.75;0.77;;;13.50;99.90;;;;;;4997986;28;20022;-75
2021/12/29 01:30:45;;;;;;;1.73;0.50;;;13.60;99.90;;;;;;4997653;28;20058;-74
2021/12/29 01:33:10;;;;;;;2.08;0.77;;;13.60;99.90;;;;;;4996375;28;20030;-79
2021/12/29 01:35:38;;;;;;;1.85;0.60;;;13.60;99.90;;;;;;4997564;28;20019;-76
2021/12/29 01:38:05;;;;;;;1.13;0.55;;;13.60;99.90;;;;;;4997575;28;20110;-75
2021/12/29 01:40:31;;;;;;;1.70;0.40;;;13.60;99.90;;;;;;4997510;28;20498;-75
2021/12/29 01:42:58;;;;;;;1.30;0.40;;;13.60;99.90;;;;;;4997765;28;20030;-76
2021/12/29 01:45:24;;;;;;;3.90;0.68;;;13.60;99.90;;;;;;4997019;28;20034;-77
2021/12/29 01:47:50;;;;;;;0.60;0.43;;;13.60;99.90;;;;;;4997689;28;20034;-80
2021/12/29 01:50:16;;;;;;;0.82;0.40;;;13.60;99.90;;;;;;4997331;28;20019;-76
2021/12/29 01:52:49;;;;;;;1.13;0.28;;;13.60;99.90;;;;;;4997230;28;20046;-75
2021/12/29 01:55:16;;;;;;;0.10;0.10;;;13.60;99.90;;;;;;4997483;28;20475;-77
2021/12/29 01:57:43;;;;;;;0.35;0.25;;;13.60;99.90;;;;;;4997158;28;20049;-74
2021/12/29 02:00:13;;;;;;;1.33;0.40;;;13.60;99.90;;;;;;4997166;28;20109;-74
2021/12/29 02:02:39;;;;;;;2.35;0.35;;;13.60;99.90;;;;;;4997696;28;20026;-77
2021/12/29 02:05:06;;;;;;;3.25;0.38;;;13.60;99.90;;;;;;4997051;28;20174;-73
2021/12/29 02:07:32;;;;;;;1.35;0.30;;;13.60;99.90;;;;;;4997182;28;20026;-78
2021/12/29 02:09:58;;;;;;;0.95;0.45;;;13.70;99.90;;;;;;4997191;28;20018;-74
2021/12/29 02:12:23;;;;;;;0.73;0.40;;;13.70;99.90;;;;;;4996912;28;20372;-75
2021/12/29 02:14:49;;;;;;;1.98;0.20;;;13.70;99.90;;;;;;4996863;28;20022;-76
2021/12/29 02:17:15;;;;;;;0.80;0.20;;;13.80;99.90;;;;;;4997068;28;20109;-72
2021/12/29 02:19:46;;;;;;;0.45;0.20;;;13.80;99.90;;;;;;4996786;28;20395;-75
2021/12/29 02:25:59;;;;;;;1.27;0.22;;;13.80;99.90;;;;;;4997307;28;20037;-77
2021/12/29 02:27:55;;;;;;;0.75;0.28;;;13.80;99.90;;;;;;4996142;28;20043;-77
2021/12/29 02:30:24;;;;;;;1.30;0.43;;;13.80;99.90;;;;;;4996871;28;20066;-74
2021/12/29 02:32:54;;;;;;;0.98;0.10;;;13.80;99.90;;;;;;4996549;28;20018;-78
2021/12/29 02:35:21;;;;;;;2.13;0.35;;;13.80;99.90;;;;;;4996478;28;20041;-77
2021/12/29 02:37:47;;;;;;;0.75;0.10;;;13.80;99.90;;;;;;4996759;28;20026;-76
2021/12/29 02:40:13;;;;;;;0.57;0.20;;;13.80;99.90;;;;;;4996305;28;20570;-74
2021/12/29 02:42:41;;;;;;;0.52;0.28;;;13.80;99.90;;;;;;4996904;28;20028;-75
2021/12/29 02:45:18;;;;;;;0.10;0.10;;;13.80;99.90;;;;;;4996330;28;20053;-76
2021/12/29 02:47:44;;;;;;;0.38;0.10;;;13.80;99.90;;;;;;4994677;28;20037;-77
2021/12/29 02:50:14;;;;;;;0.47;0.22;;;13.80;99.90;;;;;;4996740;28;20033;-75
2021/12/29 02:52:40;;;;;;;0.20;0.20;;;13.80;99.90;;;;;;4994672;28;20018;-75
2021/12/29 02:55:06;;;;;;;0.95;0.38;;;13.80;99.90;;;;;;4996077;28;20022;-74
2021/12/29 02:57:32;;;;;;;0.10;0.10;;;13.80;99.90;;;;;;4996643;28;20023;-75
2021/12/29 02:59:57;;;;;;;0.20;0.20;;;13.80;99.90;;;;;;4995984;28;20038;-75
2021/12/29 03:02:23;;;;;;;0.35;0.20;;;13.80;99.90;;;;;;4996283;28;20026;-76
2021/12/29 03:04:48;;;;;;;0.57;0.20;;;13.80;99.90;;;;;;4994658;28;20034;-80
2021/12/29 03:07:14;;;;;;;0.28;0.13;;;13.80;99.90;;;;;;4996085;28;20027;-79
2021/12/29 03:09:40;;;;;;;0.30;0.30;;;13.80;99.90;;;;;;4996384;28;20023;-75
2021/12/29 03:12:06;;;;;;;0.10;0.10;;;13.80;99.90;;;;;;4996325;28;20026;-77
2021/12/29 03:14:32;;;;;;;0.10;0.03;;;13.80;99.90;;;;;;4994543;28;20033;-76
2021/12/29 03:16:58;;;;;;;1.10;0.10;;;13.80;99.90;;;;;;4995948;28;20089;-77
2021/12/29 03:19:24;;;;;;;0.32;0.13;;;13.80;99.90;;;;;;4995686;28;20487;-74
2021/12/29 03:21:50;;;;;;;0.57;0.10;;;13.80;99.90;;;;;;4995594;28;20028;-75
2021/12/29 03:24:18;;;;;;;0.88;0.20;;;13.80;99.90;;;;;;4995828;28;20033;-75
2021/12/29 03:26:45;;;;;;;0.77;0.10;;;13.80;99.90;;;;;;4995717;28;20030;-75
2021/12/29 03:29:11;;;;;;;0.57;0.40;;;13.90;99.90;;;;;;4995789;28;20054;-78
2021/12/29 03:31:39;;;;;;;1.38;0.30;;;13.90;99.90;;;;;;4995411;28;20022;-75
2021/12/29 03:34:05;;;;;;;1.13;0.20;;;13.90;99.90;;;;;;4995411;28;20030;-73
2021/12/29 03:36:31;;;;;;;0.10;0.10;;;13.90;99.90;;;;;;4995620;28;20101;-76
2021/12/29 03:38:57;;;;;;;0.68;0.10;;;13.90;99.90;;;;;;4995326;28;20030;-78
2021/12/29 03:41:24;;;;;;;0.10;0.10;;;13.90;99.90;;;;;;4995149;28;20019;-75
2021/12/29 03:43:51;;;;;;;1.65;0.30;;;13.90;99.90;;;;;;4995040;28;20410;-77
2021/12/29 03:46:19;;;;;;;1.08;0.20;;;13.90;99.90;;;;;;4995133;28;20114;-73
2021/12/29 03:48:46;;;;;;;0.35;0.05;;;13.90;99.90;;;;;;4993276;28;20463;-74
2021/12/29 03:51:12;;;;;;;0.85;0.28;;;13.90;99.90;;;;;;4995315;28;20027;-78
2021/12/29 03:53:39;;;;;;;2.67;0.35;;;13.90;99.90;;;;;;4995051;28;20471;-75
2021/12/29 03:56:06;;;;;;;0.40;0.17;;;13.90;99.90;;;;;;4995006;28;20054;-75
2021/12/29 03:58:32;;;;;;;0.10;0.10;;;14.00;99.90;;;;;;4994956;28;20110;-76
2021/12/29 04:01:04;;;;;;;1.98;0.25;;;14.00;99.90;;;;;;4994882;28;20022;-74
2021/12/29 04:03:30;;;;;;;1.08;0.20;;;13.90;99.90;;;;;;4995144;28;20372;-74
2021/12/29 04:05:56;;;;;;;0.15;0.15;;;14.00;99.90;;;;;;4994690;28;20037;-74
2021/12/29 04:08:22;;;;;;;0.82;0.50;;;14.00;99.90;;;;;;4994755;28;20022;-76
2021/12/29 04:10:47;;;;;;;0.10;0.10;;;14.00;99.90;;;;;;4994647;28;20032;-76
2021/12/29 04:13:13;;;;;;;1.15;0.40;;;14.00;99.90;;;;;;4994584;28;20061;-75
2021/12/29 04:15:39;;;;;;;1.00;0.38;;;14.00;99.90;;;;;;4994567;28;20061;-73
2021/12/29 04:18:14;;;;;;;0.63;0.20;;;14.00;99.90;;;;;;4994862;28;20022;-74
2021/12/29 04:21:02;;;;;;;1.35;0.20;;;14.00;99.90;;;;;;4994853;28;20022;-76
2021/12/29 04:23:31;;;;;;;0.80;0.10;;;14.00;99.90;;;;;;4992971;28;20030;-77
2021/12/29 04:26:00;;;;;;;0.80;0.22;;;14.00;99.90;;;;;;4994373;28;20019;-75
2021/12/29 04:28:26;;;;;;;0.45;0.17;;;14.00;99.90;;;;;;4994428;28;20109;-77
2021/12/29 04:31:07;;;;;;;1.52;0.32;;;14.00;99.90;;;;;;4994650;28;20050;-74
2021/12/29 04:33:33;;;;;;;0.45;0.30;;;14.10;99.90;;;;;;4994665;28;20026;-77
2021/12/29 04:35:58;;;;;;;0.20;0.20;;;14.00;99.90;;;;;;4994563;28;20037;-74
2021/12/29 04:38:25;;;;;;;0.45;0.10;;;14.10;99.90;;;;;;4994269;28;20038;-76
2021/12/29 04:40:54;;;;;;;1.60;0.22;;;14.10;99.90;;;;;;4994171;28;20391;-74
2021/12/29 04:43:20;;;;;;;1.13;0.35;;;14.10;99.90;;;;;;4994015;28;20037;-77
2021/12/29 04:45:47;;;;;;;1.85;0.50;;;14.00;99.90;;;;;;4994638;28;20112;-76
2021/12/29 04:48:14;;;;;;;0.95;0.35;;;14.00;99.90;;;;;;4994079;28;20037;-74
2021/12/29 04:50:49;;;;;;;0.57;0.20;;;14.00;99.90;;;;;;4994608;28;20462;-76
2021/12/29 04:53:15;;;;;;;3.03;0.47;;;14.10;99.90;;;;;;4994086;28;20081;-77
2021/12/29 04:55:45;;;;;;;2.42;0.30;;;14.10;99.90;;;;;;4994032;28;20467;-77
2021/12/29 04:58:12;;;;;;;0.40;0.28;;;14.00;99.90;;;;;;4994002;28;20026;-75
2021/12/29 05:00:38;;;;;;;0.20;0.20;;;14.00;99.90;;;;;;4991897;28;20482;-77
2021/12/29 05:03:05;;;;;;;0.08;0.08;;;14.10;99.90;;;;;;4993943;28;20029;-75
2021/12/29 05:10:46;;;;;;;0.38;0.30;;;14.10;99.90;;;;;;4994417;28;20041;-75
2021/12/29 05:13:12;;;;;;;1.35;0.73;;;14.10;99.90;;;;;;4993888;28;20497;-72
2021/12/29 05:15:38;;;;;;;0.47;0.43;;;14.10;99.90;;;;;;4993849;28;20105;-76
2021/12/29 05:18:03;;;;;;;0.68;0.30;;;14.20;99.90;;;;;;4993831;28;20026;-75
2021/12/29 05:20:30;;;;;;;1.15;0.35;;;14.20;99.90;;;;;;4993854;28;20023;-78
2021/12/29 05:22:58;;;;;;;2.42;0.45;;;14.20;99.90;;;;;;4992498;28;20402;-77
2021/12/29 05:25:24;;;;;;;3.22;0.63;;;14.20;99.90;;;;;;4992531;28;20430;-76
2021/12/29 05:27:50;;;;;;;1.90;0.30;;;14.20;99.90;;;;;;4993649;28;20088;-74
2021/12/29 05:30:16;;;;;;;2.70;0.63;;;14.20;99.90;;;;;;4994232;28;20026;-75
2021/12/29 05:32:42;;;;;;;0.75;0.52;;;14.30;99.90;;;;;;4994259;28;20455;-74
2021/12/29 05:35:09;;;;;;;3.30;0.73;;;14.20;99.90;;;;;;4993664;28;20033;-79
2021/12/29 05:37:34;;;;;;;4.47;0.80;;;14.20;99.90;;;;;;4993912;28;20030;-75
2021/12/29 05:40:00;;;;;;;2.25;0.90;;;14.20;99.90;;;;;;4993541;28;20085;-76
2021/12/29 05:42:26;;;;;;;3.47;0.85;;;14.20;99.90;;;;;;4993845;28;20030;-74
2021/12/29 05:44:52;;;;;;;2.60;1.20;;;14.30;99.90;;;;;;4993405;28;20078;-76
2021/12/29 05:47:17;;;;;;;3.78;1.15;;;14.30;99.90;;;;;;4993493;28;20113;-76
2021/12/29 05:49:43;;;;;;;5.40;1.58;;;14.30;99.90;;;;;;4993514;28;20033;-77
2021/12/29 05:52:10;;;;;;;4.03;1.30;;;14.30;99.90;;;;;;4993521;28;20153;-76
2021/12/29 05:54:36;;;;;;;5.07;1.60;;;14.30;99.90;;;;;;4993484;28;20022;-78
2021/12/29 05:57:02;;;;;;;3.17;1.25;;;14.30;99.90;;;;;;4993513;28;20109;-76
2021/12/29 05:59:28;;;;;;;6.07;1.30;;;14.30;99.90;;;;;;4993960;28;20062;-75
2021/12/29 06:01:53;;;;;;;4.90;1.23;;;14.30;99.90;;;;;;4993456;28;20038;-76
2021/12/29 06:04:19;;;;;;;6.47;2.00;;;14.30;99.90;;;;;;4993399;28;20027;-73
2021/12/29 06:06:46;;;;;;;5.93;1.65;;;14.30;99.90;;;;;;4993327;28;20041;-75
2021/12/29 06:09:12;;;;;;;5.30;1.40;;;14.30;99.90;;;;;;4993669;28;20061;-74
2021/12/29 06:11:37;;;;;;;3.95;1.67;;;14.30;99.90;;;;;;4995620;28;20023;-75
2021/12/29 06:14:03;;;;;;;3.78;1.38;;;14.30;99.90;;;;;;4996897;28;20399;-76
2021/12/29 06:16:28;;;;;;;7.22;1.73;;;14.30;99.90;;;;;;4997090;28;20026;-75
2021/12/29 06:18:55;;;;;;;6.07;1.70;;;14.30;99.90;;;;;;4996655;28;20406;-75
2021/12/29 06:21:21;;;;;;;5.68;1.60;;;14.30;99.90;;;;;;4996775;28;20454;-77
2021/12/29 06:23:47;;;;;;;3.70;1.63;;;14.30;99.90;;;;;;4996964;28;20026;-76
2021/12/29 06:26:14;;;;;;;4.10;1.77;;;14.30;99.90;;;;;;4996604;28;20486;-75
2021/12/29 06:28:40;;;;;;;7.50;1.63;;;14.30;99.90;;;;;;4996614;28;20023;-76
2021/12/29 06:31:06;;;;;;;3.85;1.70;;;14.30;99.90;;;;;;4996526;28;20048;-76
2021/12/29 06:33:32;;;;;;;5.40;1.33;;;14.30;99.90;;;;;;4996509;28;20058;-75
2021/12/29 06:35:57;;;;;;;4.55;1.70;;;14.40;99.90;;;;;;4996759;28;20034;-78
2021/12/29 06:38:23;;;;;;;4.88;1.70;;;14.30;99.90;;;;;;4995165;28;20027;-76
2021/12/29 06:40:49;;;;;;;4.28;1.08;;;14.40;99.90;;;;;;4996128;28;20038;-76
2021/12/29 06:43:15;;;;;;;3.20;1.35;;;14.40;99.90;;;;;;4996231;28;20022;-77
2021/12/29 06:45:41;;;;;;;5.82;1.25;;;14.40;99.90;;;;;;4996228;28;20041;-74
2021/12/29 06:48:07;;;;;;;5.47;1.45;;;14.40;99.90;;;;;;4996274;28;20026;-75
2021/12/29 06:50:32;;;;;;;5.95;1.33;;;14.40;99.90;;;;;;4996518;28;20522;-76
2021/12/29 06:52:58;;;;;;;4.05;1.23;;;14.50;99.90;;;;;;4994866;28;20030;-76
2021/12/29 06:55:24;;;;;;;5.03;1.00;;;14.50;99.90;;;;;;4996674;28;20057;-73
2021/12/29 06:57:50;;;;;;;3.13;1.27;;;14.50;99.90;;;;;;4996129;28;20037;-75
2021/12/29 07:00:16;;;;;;;1.85;0.90;;;14.50;99.90;;;;;;4994772;28;20037;-75
2021/12/29 07:02:42;;;;;;;2.50;0.90;;;14.50;99.90;;;;;;4996006;28;20098;-74
2021/12/29 07:05:08;;;;;;;1.95;1.20;;;14.50;99.90;;;;;;4995996;28;20154;-75
2021/12/29 07:07:34;;;;;;;1.55;0.85;;;14.50;99.90;;;;;;4996413;28;20467;-76
2021/12/29 07:10:00;;;;;;;2.05;0.88;;;14.40;99.90;;;;;;4996199;28;20101;-75
2021/12/29 07:12:26;;;;;;;3.50;0.95;;;14.50;99.90;;;;;;4994622;28;20114;-74
2021/12/29 07:14:51;;;;;;;4.38;1.40;;;14.50;99.90;;;;;;4995799;28;20476;-77
2021/12/29 07:17:17;;;;;;;6.20;1.25;;;14.50;99.90;;;;;;4996323;28;20031;-77
2021/12/29 07:19:43;;;;;;;3.00;0.80;;;14.50;99.90;;;;;;4995955;28;20038;-75
2021/12/29 07:22:08;;;;;;;3.03;0.80;;;14.50;99.90;;;;;;4994944;28;20490;-76
2021/12/29 07:24:35;;;;;;;5.40;1.38;;;14.50;99.90;;;;;;4994216;28;20027;-77
2021/12/29 07:27:01;;;;;;;3.03;0.90;;;14.50;99.90;;;;;;4995492;28;20454;-74
2021/12/29 07:29:27;;;;;;;1.88;0.90;;;14.50;99.90;;;;;;4994291;28;20072;-75
2021/12/29 07:31:53;;;;;;;5.00;1.10;;;14.50;99.90;;;;;;4995701;28;20026;-76
2021/12/29 07:34:22;;;;;;;5.15;1.52;;;14.50;99.90;;;;;;4995440;28;20029;-76
2021/12/29 07:36:49;;;;;;;4.10;1.13;;;14.50;99.90;;;;;;4995893;28;20542;-77
2021/12/29 07:39:15;;;;;;;3.33;0.90;;;14.50;99.90;;;;;;4995320;28;20081;-76
2021/12/29 07:41:41;;;;;;;3.25;1.08;;;14.50;99.90;;;;;;4995539;28;20058;-78
2021/12/29 07:44:07;;;;;;;3.55;1.85;;;14.50;99.90;;;;;;4994994;28;20070;-75
2021/12/29 07:46:34;;;;;;;4.35;1.33;;;14.50;99.90;;;;;;4995018;28;20514;-76
2021/12/29 07:49:02;;;;;;;3.58;0.98;;;14.50;99.90;;;;;;4995162;28;20058;-77
2021/12/29 07:51:28;;;;;;;2.45;1.00;;;14.50;99.90;;;;;;4993788;28;20398;-75
2021/12/29 07:53:53;;;;;;;5.57;1.90;;;14.50;99.90;;;;;;4995038;28;20041;-74
2021/12/29 07:56:19;;;;;;;3.10;1.85;;;14.50;99.90;;;;;;4995250;28;20026;-73
2021/12/29 07:58:45;;;;;;;3.80;2.30;;;14.40;99.90;;;;;;4995210;28;20033;-76
2021/12/29 08:01:11;;;;;;;3.80;2.10;;;14.50;99.90;;;;;;4995142;28;20434;-77
2021/12/29 08:03:38;;;;;;;4.43;1.88;;;14.40;99.90;;;;;;4993569;28;20034;-75
2021/12/29 08:06:04;;;;;;;7.05;1.88;;;14.40;99.90;;;;;;4994735;28;20466;-78
2021/12/29 08:08:30;;;;;;;3.42;1.52;;;14.50;99.90;;;;;;4994813;28;20081;-75
2021/12/29 08:10:55;;;;;;;3.63;1.35;;;14.40;99.90;;;;;;4994702;28;20101;-76
2021/12/29 08:13:22;;;;;;;1.52;0.73;;;14.40;99.90;;;;;;4994702;28;20022;-76
2021/12/29 08:15:48;;;;;;;3.50;1.17;;;14.40;99.90;;;;;;4994630;28;20018;-76
2021/12/29 08:18:13;;;;;;;2.53;1.40;;;14.40;99.90;;;;;;4994623;28;20026;-76
2021/12/29 08:20:39;;;;;;;2.05;1.10;;;14.40;99.90;;;;;;4994533;28;20486;-74
2021/12/29 08:23:06;;;;;;;5.65;2.90;;;14.40;99.90;;;;;;4994798;28;20057;-74
2021/12/29 08:25:33;;;;;;;4.20;1.42;;;14.40;99.90;;;;;;4993239;28;20042;-77
2021/12/29 08:27:58;;;;;;;3.28;1.35;;;14.40;99.90;;;;;;4993083;28;20435;-75
2021/12/29 08:30:25;;;;;;;3.97;1.92;;;14.40;99.90;;;;;;4994379;28;20073;-76
2021/12/29 08:32:51;;;;;;;3.17;1.20;;;14.40;99.90;;;;;;4994649;28;20027;-74
2021/12/29 08:35:17;;;;;;;4.22;2.10;;;14.40;99.90;;;;;;4994221;28;20372;-73
2021/12/29 08:37:43;;;;;;;4.50;1.33;;;14.40;99.90;;;;;;4994266;28;20045;-77
2021/12/29 08:40:11;;;;;;;4.25;0.98;;;14.40;99.90;;;;;;4994206;28;20018;-74
2021/12/29 08:42:38;;;;;;;2.42;0.60;;;14.50;99.90;;;;;;4994177;28;20375;-80
2021/12/29 08:45:06;;;;;;;1.17;0.77;;;14.50;99.90;;;;;;4994020;28;20053;-76
2021/12/29 08:47:32;;;;;;;3.55;1.02;;;14.50;99.90;;;;;;4994035;28;20041;-75
2021/12/29 08:49:57;;;;;;;5.35;1.02;;;14.50;99.90;;;;;;4994368;28;20019;-76
2021/12/29 08:52:23;;;;;;;3.33;1.30;;;14.50;99.90;;;;;;4994323;28;20026;-74
2021/12/29 08:54:49;;;;;;;4.50;1.92;;;14.50;99.90;;;;;;4994076;28;20022;-76
2021/12/29 08:57:14;;;;;;;3.70;1.00;;;14.50;99.90;;;;;;4994268;28;20037;-76
2021/12/29 08:59:40;;;;;;;5.03;0.93;;;14.50;99.90;;;;;;4993997;28;20480;-74
2021/12/29 09:02:06;;;;;;;1.65;0.60;;;14.60;99.90;;;;;;4993967;28;20026;-75
2021/12/29 09:04:31;;;;;;;4.75;1.30;;;14.50;99.90;;;;;;4994235;28;20027;-74
2021/12/29 09:06:57;;;;;;;1.25;0.40;;;14.50;99.90;;;;;;4994433;28;20066;-77
2021/12/29 09:09:23;;;;;;;3.78;0.85;;;14.50;99.90;;;;;;4994458;28;20019;-74
2021/12/29 09:11:49;;;;;;;1.95;0.90;;;14.60;99.90;;;;;;4993862;28;20023;-76
2021/12/29 09:14:14;;;;;;;4.72;1.40;;;14.60;99.90;;;;;;4993810;28;20023;-78
2021/12/29 09:16:41;;;;;;;3.70;1.23;;;14.60;99.90;;;;;;4993819;28;20031;-77
2021/12/29 09:19:11;;;;;;;4.60;2.17;;;14.60;99.90;;;;;;4993811;28;20029;-75
2021/12/29 09:21:38;;;;;;;;;;;14.60;99.90;;;;;;4994804;28;20030;-75
2021/12/29 09:24:05;;;;;;;5.63;1.30;;;14.60;99.90;;;;;;4993798;28;19956;-76
2021/12/29 09:26:31;;;;;;;1.98;1.25;;;14.60;99.90;;;;;;4993937;28;20022;-76
2021/12/29 09:28:57;;;;;;;3.47;1.25;;;14.50;99.90;;;;;;4993972;28;20023;-76
2021/12/29 09:31:24;;;;;;;1.98;1.08;;;14.50;99.90;;;;;;4993713;28;20038;-73
2021/12/29 09:33:50;;;;;;;5.95;1.98;;;14.60;99.90;;;;;;4993959;28;20033;-75
2021/12/29 09:36:16;;;;;;;3.17;1.42;;;14.50;99.90;;;;;;4993486;28;20121;-78
2021/12/29 09:38:42;;;;;;;2.80;1.13;;;14.50;99.90;;;;;;4993639;28;20066;-79
2021/12/29 09:41:12;;;;;;;9.35;1.70;;;14.60;99.90;;;;;;4993405;28;20037;-75
2021/12/29 09:43:40;;;;;;;2.88;1.02;;;14.60;99.90;;;;;;4993081;28;20570;-77
2021/12/29 09:46:06;;;;;;;3.33;1.00;;;14.60;99.90;;;;;;4994824;28;20041;-78
2021/12/29 09:48:33;;;;;;;0.75;0.60;;;14.60;99.90;;;;;;4997424;28;20517;-75
2021/12/29 09:51:00;;;;;;;1.65;0.95;;;14.60;99.90;;;;;;4997379;28;20102;-75
2021/12/29 09:53:26;;;;;;;4.53;1.35;;;14.60;99.90;;;;;;4997565;28;20153;-77
2021/12/29 09:55:51;;;;;;;2.55;0.80;;;14.70;99.90;;;;;;4997257;28;20039;-75
2021/12/29 09:58:18;;;;;;;6.97;1.85;;;14.70;99.90;;;;;;4997464;28;20026;-75
2021/12/29 10:00:48;;;;;;;3.47;1.55;;;14.70;99.90;;;;;;4997155;28;20026;-76
2021/12/29 10:03:16;;;;;;;3.92;1.92;;;14.70;99.90;;;;;;4997460;28;20029;-74
2021/12/29 10:05:44;;;;;;;6.95;1.45;;;14.70;99.90;;;;;;4997030;28;20027;-73
2021/12/29 10:08:14;;;;;;;3.33;1.55;;;14.70;99.90;;;;;;4997067;28;20054;-74
2021/12/29 10:10:44;;;;;;;4.47;0.80;;;14.70;99.90;;;;;;4997340;28;20418;-74
2021/12/29 10:13:10;;;;;;;3.95;0.95;;;14.70;99.90;;;;;;4997319;28;20034;-76
2021/12/29 10:15:40;;;;;;;6.25;1.40;;;14.70;99.90;;;;;;4996853;28;20379;-74
2021/12/29 10:18:15;;;;;;;5.57;1.20;;;14.70;99.90;;;;;;4996892;28;20030;-78
2021/12/29 10:20:56;;;;;;;5.85;1.23;;;14.70;99.90;;;;;;4997162;28;20704;-76
2021/12/29 10:23:35;;;;;;;3.58;1.02;;;14.70;99.90;;;;;;4997082;28;20360;-76
2021/12/29 10:26:08;;;;;;;2.72;0.77;;;14.70;99.90;;;;;;4996933;28;20026;-75
2021/12/29 10:28:35;;;;;;;4.05;1.10;;;14.70;99.90;;;;;;4996949;28;20153;-75
2021/12/29 10:31:13;;;;;;;4.35;0.90;;;14.70;99.90;;;;;;4996889;28;20026;-76
2021/12/29 10:33:47;;;;;;;6.40;0.85;;;14.70;99.90;;;;;;4996635;28;20113;-77
2021/12/29 10:36:22;;;;;;;1.85;0.75;;;14.80;99.90;;;;;;4997080;28;20027;-76
2021/12/29 10:39:14;;;;;;;4.07;1.20;;;14.80;99.90;;;;;;4996480;28;20031;-75
2021/12/29 10:42:05;;;;;;;5.93;1.00;;;14.80;99.90;;;;;;4996461;28;20102;-73
2021/12/29 10:44:39;;;;;;;6.05;1.30;;;14.90;99.90;;;;;;4991580;28;20472;-78
2021/12/29 10:47:17;;;;;;;3.28;0.90;;;14.90;99.90;;;;;;4996786;28;20031;-76
2021/12/29 10:49:54;;;;;;;4.55;0.85;;;14.90;99.90;;;;;;4996284;28;20454;-76
2021/12/29 10:52:38;;;;;;;2.13;0.98;;;15.00;99.90;;;;;;4996295;28;20014;-74
2021/12/29 10:55:18;;;;;;;4.10;1.02;;;15.10;99.90;;;;;;4996210;28;20026;-73
2021/12/29 10:57:45;;;;;;;3.70;0.90;;;15.10;99.90;;;;;;4995054;28;20549;-75
2021/12/29 11:00:16;;;;;;;6.80;1.30;;;15.00;99.90;;;;;;4996079;28;20042;-77
2021/12/29 11:02:42;;;;;;;;;;;15.00;99.90;;;;;;4996855;28;20033;-75
2021/12/29 11:05:10;;;;;;;4.47;1.10;;;15.00;99.90;;;;;;4996032;28;20006;-76
2021/12/29 11:07:38;;;;;;;3.47;1.60;;;14.90;99.90;;;;;;4995911;28;20101;-75
2021/12/29 11:10:12;;;;;;;3.88;1.00;;;15.00;99.90;;;;;;4995944;28;20092;-76
2021/12/29 11:12:50;;;;;;;4.60;1.10;;;15.00;99.90;;;;;;4996742;28;20062;-74
2021/12/29 11:15:23;;;;;;;3.88;1.23;;;14.90;99.90;;;;;;4996101;28;20383;-77
2021/12/29 11:17:50;;;;;;;3.92;1.30;;;14.90;99.90;;;;;;4996356;28;20379;-76
2021/12/29 11:20:18;;;;;;;2.88;0.80;;;15.00;99.90;;;;;;4995765;28;20033;-76
2021/12/29 11:22:44;;;;;;;2.28;1.00;;;15.00;99.90;;;;;;4996229;28;20068;-75
2021/12/29 11:25:10;;;;;;;2.53;1.20;;;15.00;99.90;;;;;;4995622;28;20030;-76
2021/12/29 11:27:37;;;;;;;3.22;1.63;;;15.10;99.90;;;;;;4995532;28;20542;-76
2021/12/29 11:30:08;;;;;;;3.90;1.25;;;15.10;99.90;;;;;;4995444;28;20042;-77
2021/12/29 11:32:37;;;;;;;6.50;1.90;;;15.10;99.90;;;;;;4995922;28;20536;-75
2021/12/29 11:35:08;;;;;;;2.88;1.00;;;15.10;99.90;;;;;;4995465;28;20029;-75
2021/12/29 11:37:37;;;;;;;4.80;1.15;;;15.10;99.90;;;;;;4995314;28;20050;-75
2021/12/29 11:40:04;;;;;;;3.35;1.05;;;15.20;99.90;;;;;;4993984;28;20030;-75
2021/12/29 11:42:29;;;;;;;5.07;1.55;;;15.10;99.90;;;;;;4995857;28;20018;-72
2021/12/29 11:44:55;;;;;;;4.82;1.20;;;15.10;99.90;;;;;;4995013;28;20511;-75
2021/12/29 11:47:21;;;;;;;5.05;1.20;;;15.20;99.90;;;;;;4995385;28;20379;-75
2021/12/29 11:49:47;;;;;;;4.85;1.55;;;15.20;99.90;;;;;;4995389;28;20027;-77
2021/12/29 11:52:31;;;;;;;3.35;1.20;;;15.20;99.90;;;;;;4995112;28;20118;-76
2021/12/29 11:55:20;;;;;;;6.78;1.63;;;15.20;99.90;;;;;;4995263;28;20085;-76
2021/12/29 11:57:47;;;;;;;3.53;1.53;;;15.20;99.90;;;;;;4995622;28;20041;-75
2021/12/29 12:00:21;;;;;;;6.68;2.05;;;15.20;99.90;;;;;;4995014;28;20117;-74
2021/12/29 12:02:53;;;;;;;5.97;1.65;;;15.10;99.90;;;;;;4995523;28;20032;-77
2021/12/29 12:05:34;;;;;;;6.80;1.75;;;15.10;99.90;;;;;;4994879;28;20022;-75
2021/12/29 12:08:12;;;;;;;3.22;1.38;;;15.10;99.90;;;;;;4995191;28;20037;-76
2021/12/29 12:10:39;;;;;;;6.47;1.42;;;15.10;99.90;;;;;;4994730;28;20018;-74
2021/12/29 12:13:20;;;;;;;2.88;1.38;;;15.20;99.90;;;;;;4995015;28;20029;-77
2021/12/29 12:15:45;;;;;;;2.78;1.30;;;15.20;99.90;;;;;;4994994;28;20485;-76
2021/12/29 12:18:11;;;;;;;4.43;1.25;;;15.20;99.90;;;;;;4994597;28;20027;-76
2021/12/29 12:20:43;;;;;;;3.45;1.40;;;15.20;99.90;;;;;;4994548;28;20033;-78
2021/12/29 12:23:20;;;;;;;4.28;1.40;;;15.30;99.90;;;;;;4995064;28;20108;-79
2021/12/29 12:25:46;;;;;;;3.05;1.10;;;15.30;99.90;;;;;;4995209;28;20022;-73
2021/12/29 12:28:21;;;;;;;4.22;1.30;;;15.30;99.90;;;;;;4994418;28;20101;-77
2021/12/29 12:30:51;;;;;;;4.18;0.98;;;15.40;99.90;;;;;;4995011;28;20019;-75
2021/12/29 12:33:25;;;;;;;3.72;1.20;;;15.40;99.90;;;;;;4994662;28;20021;-75
2021/12/29 12:35:53;;;;;;;6.03;2.42;;;15.30;99.90;;;;;;4994935;28;20029;-74
2021/12/29 12:38:30;;;;;;;4.10;1.23;;;15.30;99.90;;;;;;4993066;28;20026;-75
2021/12/29 12:41:06;;;;;;;3.22;1.83;;;15.30;99.90;;;;;;4994569;28;20026;-74
2021/12/29 12:43:35;;;;;;;3.65;1.10;;;15.30;99.90;;;;;;4994597;28;20026;-80
2021/12/29 12:46:01;;;;;;;4.32;1.20;;;15.40;99.90;;;;;;4994461;28;20404;-77
2021/12/29 12:48:32;;;;;;;5.05;1.88;;;15.40;99.90;;;;;;4994159;28;20097;-76
2021/12/29 12:51:12;;;;;;;3.00;1.52;;;15.40;99.90;;;;;;4994758;28;20408;-75
2021/12/29 12:53:37;;;;;;;3.42;1.63;;;15.40;99.90;;;;;;4994168;28;20090;-75
2021/12/29 12:56:06;;;;;;;3.05;1.52;;;15.40;99.90;;;;;;4994079;28;20072;-75
2021/12/29 12:58:45;;;;;;;5.72;2.20;;;15.40;99.90;;;;;;4994042;28;20057;-75
2021/12/29 13:01:14;;;;;;;7.20;1.23;;;15.40;99.90;;;;;;4994263;28;20471;-73